createdAt,value
2019-05-25T00:02:43.660Z,53.6
2019-05-25T00:04:44.235Z,52.3
2019-05-25T00:07:21.893Z,54.4
2019-05-25T00:09:21.470Z,51.0
2019-05-25T00:11:21.948Z,73.8
2019-05-25T00:13:21.589Z,64.2
2019-05-25T00:15:22.069Z,70.8
2019-05-25T00:17:21.523Z,74.5
2019-05-25T00:19:22.004Z,66.0
2019-05-25T00:21:21.490Z,72.8
2019-05-25T00:23:22.006Z,78.0
2019-05-25T00:25:21.355Z,73.0
2019-05-25T00:27:21.776Z,76.5
2019-05-25T00:29:22.286Z,70.2
2019-05-25T00:31:21.875Z,73.2
2019-05-25T00:33:21.460Z,67.3
2019-05-25T00:35:21.999Z,70.2
2019-05-25T00:37:21.972Z,72.8
2019-05-25T00:39:19.994Z,54.3
2019-05-25T00:41:21.325Z,46.5
2019-05-25T00:43:21.709Z,51.8
2019-05-25T00:45:22.107Z,63.6
2019-05-25T00:47:21.681Z,70.2
2019-05-25T00:49:22.216Z,69.7
2019-05-25T00:51:21.894Z,71.8
2019-05-25T00:53:21.419Z,71.4
2019-05-25T00:55:21.877Z,66.0
2019-05-25T00:57:21.276Z,67.8
2019-05-25T00:59:21.719Z,75.3
2019-05-25T01:01:24.746Z,69.7
2019-05-25T01:03:22.230Z,69.1
2019-05-25T01:05:21.604Z,72.3
2019-05-25T01:07:22.184Z,71.2
2019-05-25T01:09:21.778Z,77.5
2019-05-25T01:11:22.282Z,80.7
2019-05-25T01:13:21.839Z,77.9
2019-05-25T01:15:21.284Z,78.5
2019-05-25T01:17:21.763Z,72.8
2019-05-25T01:19:21.430Z,73.0
2019-05-25T01:21:21.985Z,73.1
2019-05-25T01:23:21.374Z,75.1
2019-05-25T01:25:22.073Z,72.5
2019-05-25T01:27:21.555Z,82.0
2019-05-25T01:29:22.202Z,72.8
2019-05-25T01:31:21.666Z,74.7
2019-05-25T01:33:22.357Z,72.8
2019-05-25T01:35:21.868Z,70.1
2019-05-25T01:37:21.394Z,68.6
2019-05-25T01:39:21.886Z,66.8
2019-05-25T01:41:21.388Z,72.5
2019-05-25T01:43:21.901Z,70.3
2019-05-25T01:45:21.319Z,71.5
2019-05-25T01:47:21.776Z,70.8
2019-05-25T01:49:21.423Z,78.5
2019-05-25T01:51:21.972Z,72.1
2019-05-25T01:53:21.526Z,80.5
2019-05-25T01:55:21.919Z,66.4
2019-05-25T01:57:21.447Z,72.9
2019-05-25T01:59:22.052Z,78.4
2019-05-25T02:01:21.564Z,68.9
2019-05-25T02:03:22.023Z,75.7
2019-05-25T02:04:51.440Z,74.8
2019-05-25T02:06:46.908Z,80.0
2019-05-25T02:07:24.246Z,87.4
2019-05-25T02:09:24.711Z,79.2
2019-05-25T02:11:24.196Z,80.1
2019-05-25T02:13:24.682Z,73.0
2019-05-25T02:15:24.116Z,81.4
2019-05-25T02:17:24.568Z,74.7
2019-05-25T02:19:24.178Z,79.5
2019-05-25T02:21:24.698Z,77.0
2019-05-25T02:23:24.052Z,79.2
2019-05-25T02:25:24.502Z,87.9
2019-05-25T02:27:23.968Z,82.3
2019-05-25T02:29:24.446Z,84.0
2019-05-25T02:31:24.064Z,77.7
2019-05-25T02:33:24.474Z,77.4
2019-05-25T02:35:23.868Z,83.0
2019-05-25T02:37:24.252Z,84.3
2019-05-25T02:39:24.736Z,83.2
2019-05-25T02:41:24.251Z,82.4
2019-05-25T02:43:24.724Z,78.9
2019-05-25T02:45:24.172Z,74.4
2019-05-25T02:47:24.657Z,78.8
2019-05-25T02:49:24.114Z,71.6
2019-05-25T02:51:24.611Z,77.3
2019-05-25T02:53:24.097Z,69.8
2019-05-25T02:55:34.907Z,75.4
2019-05-25T02:57:23.930Z,71.8
2019-05-25T02:59:24.311Z,75.1
2019-05-25T03:01:24.794Z,72.6
2019-05-25T03:03:24.284Z,78.5
2019-05-25T03:05:24.761Z,76.6
2019-05-25T03:07:34.317Z,75.8
2019-05-25T03:09:26.009Z,71.6
2019-05-25T03:11:24.871Z,70.2
2019-05-25T03:13:24.301Z,72.8
2019-05-25T03:15:24.726Z,78.3
2019-05-25T03:17:24.282Z,74.2
2019-05-25T03:19:24.775Z,84.5
2019-05-25T03:21:24.251Z,87.4
2019-05-25T03:23:24.854Z,79.4
2019-05-25T03:25:24.268Z,81.7
2019-05-25T03:27:24.790Z,82.1
2019-05-25T03:29:24.256Z,75.8
2019-05-25T03:31:24.855Z,79.8
2019-05-25T03:33:24.282Z,88.1
2019-05-25T03:35:24.801Z,64.6
2019-05-25T03:37:24.362Z,83.4
2019-05-25T03:39:24.089Z,85.1
2019-05-25T03:41:24.813Z,86.1
2019-05-25T03:43:24.184Z,68.7
2019-05-25T03:45:24.656Z,83.6
2019-05-25T03:47:24.202Z,83.8
2019-05-25T03:49:24.730Z,91.5
2019-05-25T04:31:17.959Z,111.3
2019-05-25T04:32:36.430Z,102.5
2019-05-25T04:34:35.907Z,81.7
2019-05-25T04:36:36.269Z,77.5
2019-05-25T04:38:35.836Z,77.1
2019-05-25T04:40:36.284Z,84.6
2019-05-25T04:42:35.723Z,109.7
2019-05-25T04:44:36.234Z,105.7
2019-05-25T04:46:35.696Z,92.5
2019-05-25T04:54:35.545Z,119.2
2019-05-25T04:56:40.243Z,93.6
2019-05-25T04:58:35.782Z,80.0
2019-05-25T05:02:36.377Z,62.6
2019-05-25T05:04:35.879Z,71.2
2019-05-25T05:06:36.398Z,94.2
2019-05-25T05:08:36.107Z,60.5
2019-05-25T05:10:35.662Z,54.1
2019-05-25T05:12:36.182Z,79.4
2019-05-25T05:14:35.740Z,54.6
2019-05-25T05:16:36.188Z,56.3
2019-05-25T05:18:35.617Z,41.5
2019-05-25T05:20:36.187Z,58.9
2019-05-25T05:22:35.687Z,66.7
2019-05-25T05:24:36.128Z,49.9
2019-05-25T05:26:35.633Z,51.7
2019-05-25T05:28:36.608Z,57.7
2019-05-25T05:30:36.047Z,67.4
2019-05-25T05:32:35.543Z,47.0
2019-05-25T05:34:35.999Z,89.1
2019-05-25T05:36:36.424Z,76.5
2019-05-25T06:06:37.349Z,51.9
2019-05-25T06:08:35.733Z,47.8
2019-05-25T06:10:36.122Z,47.7
2019-05-25T07:08:39.640Z,46.2
2019-05-25T07:09:14.060Z,38.2
2019-05-25T07:10:35.533Z,37.2
2019-05-25T07:12:35.911Z,34.3
2019-05-25T07:22:39.666Z,37.4
2019-05-25T07:24:36.091Z,15.5
2019-05-25T07:36:45.333Z,14.9
2019-05-25T07:38:35.730Z,12.9
2019-05-25T07:45:07.280Z,24.9
2019-05-25T07:46:35.574Z,29.5
2019-05-25T07:48:36.082Z,29.4
2019-05-25T07:55:29.425Z,25.6
2019-05-25T07:56:36.067Z,22.4
2019-05-25T08:06:35.150Z,14.2
2019-05-25T08:14:36.415Z,14.8
2019-05-25T08:16:35.972Z,10.5
2019-05-25T08:22:35.148Z,18.8
2019-05-25T08:24:35.637Z,21.9
2019-05-25T08:26:36.167Z,20.8
2019-05-25T08:28:35.567Z,21.5
2019-05-25T08:31:29.855Z,21.0
2019-05-25T08:32:35.776Z,18.1
2019-05-25T08:34:35.236Z,14.9
2019-05-25T08:36:35.925Z,14.5
2019-05-25T08:38:35.423Z,16.8
2019-05-25T08:40:35.068Z,16.9
2019-05-25T08:42:35.482Z,15.7
2019-05-25T08:44:35.911Z,18.5
2019-05-25T08:46:35.418Z,15.9
2019-05-25T08:48:35.900Z,18.0
2019-05-25T08:50:38.911Z,12.6
2019-05-25T08:52:35.462Z,13.9
2019-05-25T08:54:35.987Z,12.3
2019-05-25T08:56:35.515Z,10.6
2019-05-25T08:58:48.822Z,8.6
2019-05-25T09:00:35.291Z,7.8
2019-05-25T09:02:35.685Z,8.3
2019-05-25T09:04:35.092Z,9.2
2019-05-25T09:06:35.607Z,9.4
2019-05-25T09:08:35.050Z,10.2
2019-05-25T09:10:35.541Z,13.6
2019-05-25T09:12:34.986Z,14.3
2019-05-25T09:14:35.488Z,12.5
2019-05-25T09:16:36.072Z,12.3
2019-05-25T09:18:35.724Z,7.7
2019-05-25T09:20:35.721Z,8.7
2019-05-25T09:22:33.631Z,5.6
2019-05-25T09:24:35.040Z,5.3
2019-05-25T09:26:35.619Z,3.7
2019-05-25T09:28:35.137Z,5.0
2019-05-25T09:30:35.628Z,4.3
2019-05-25T09:32:35.165Z,3.9
2019-05-25T09:34:35.842Z,4.6
2019-05-25T09:36:35.268Z,6.2
2019-05-25T09:38:35.861Z,5.2
2019-05-25T09:52:42.570Z,4.2
2019-05-25T09:54:35.096Z,3.7
2019-05-25T09:56:35.525Z,4.5
2019-05-25T09:58:35.115Z,4.3
2019-05-25T10:00:40.614Z,4.9
2019-05-25T10:02:35.585Z,4.1
2019-05-25T10:04:33.120Z,3.7
2019-05-25T10:06:35.434Z,4.6
2019-05-25T10:08:35.034Z,5.3
2019-05-25T10:10:35.472Z,5.4
2019-05-25T10:12:34.980Z,5.7
2019-05-25T10:14:35.482Z,3.2
2019-05-25T10:16:34.859Z,2.8
2019-05-25T10:18:35.483Z,3.1
2019-05-25T10:20:35.015Z,4.2
2019-05-25T10:22:35.381Z,4.5
2019-05-25T10:24:34.902Z,5.8
2019-05-25T10:26:35.342Z,2.7
2019-05-25T10:28:35.885Z,2.5
2019-05-25T10:30:35.413Z,2.6
2019-05-25T10:32:35.010Z,2.3
2019-05-25T10:34:35.601Z,2.2
2019-05-25T10:36:35.084Z,2.2
2019-05-25T10:38:35.586Z,3.0
2019-05-25T10:40:35.250Z,1.9
2019-05-25T10:42:35.609Z,4.2
2019-05-25T10:44:35.386Z,2.3
2019-05-25T10:46:35.847Z,1.9
2019-05-25T10:48:35.467Z,2.3
2019-05-25T10:50:34.942Z,2.8
2019-05-25T10:52:35.257Z,3.1
2019-05-25T10:54:35.804Z,2.8
2019-05-25T10:56:35.204Z,4.2
2019-05-25T10:58:35.813Z,3.3
2019-05-25T11:00:35.391Z,3.4
2019-05-25T11:02:35.842Z,4.1
2019-05-25T11:04:35.366Z,2.9
2019-05-25T11:06:35.241Z,3.0
2019-05-25T11:08:35.709Z,4.0
2019-05-25T11:10:35.171Z,5.1
2019-05-25T11:12:35.535Z,5.5
2019-05-25T11:14:35.087Z,5.3
2019-05-25T11:16:35.566Z,2.2
2019-05-25T11:18:35.157Z,2.9
2019-05-25T11:20:35.628Z,2.5
2019-05-25T11:22:34.993Z,2.7
2019-05-25T11:24:35.491Z,3.7
2019-05-25T11:26:34.935Z,3.8
2019-05-25T11:28:35.348Z,4.2
2019-05-25T11:30:35.001Z,3.9
2019-05-25T11:32:35.393Z,3.5
2019-05-25T11:34:34.913Z,3.8
2019-05-25T11:36:35.328Z,3.9
2019-05-25T11:38:36.331Z,3.4
2019-05-25T11:40:35.777Z,2.4
2019-05-25T11:42:35.223Z,3.3
2019-05-25T11:44:35.773Z,3.7
2019-05-25T11:46:35.230Z,3.2
2019-05-25T11:48:35.816Z,3.2
2019-05-25T11:50:35.363Z,3.7
2019-05-25T11:52:35.793Z,2.8
2019-05-25T11:54:35.203Z,4.0
2019-05-25T11:56:35.689Z,2.8
2019-05-25T11:58:47.885Z,3.9
2019-05-25T12:02:35.755Z,3.6
2019-05-25T12:04:35.236Z,4.6
2019-05-25T12:06:35.774Z,4.9
2019-05-25T12:08:35.243Z,4.8
2019-05-25T12:10:35.763Z,6.5
2019-05-25T12:12:35.160Z,7.3
2019-05-25T12:14:35.644Z,8.4
2019-05-25T12:16:35.206Z,6.8
2019-05-25T12:18:35.675Z,7.2
2019-05-25T12:20:35.492Z,6.7
2019-05-25T12:22:34.977Z,6.4
2019-05-25T12:24:35.455Z,3.9
2019-05-25T12:26:35.035Z,4.7
2019-05-25T12:28:35.470Z,4.4
2019-05-25T12:30:41.494Z,4.0
2019-05-25T12:34:35.024Z,3.9
2019-05-25T12:36:35.621Z,5.9
2019-05-25T12:38:35.191Z,7.8
2019-05-25T12:40:35.695Z,8.6
2019-05-25T12:42:35.100Z,7.1
2019-05-25T12:44:35.570Z,10.2
2019-05-25T12:46:34.944Z,6.4
2019-05-25T12:48:35.375Z,6.3
2019-05-25T12:50:35.686Z,4.0
2019-05-25T12:52:35.287Z,7.6
2019-05-25T12:54:35.063Z,7.0
2019-05-25T12:56:35.599Z,4.4
2019-05-25T12:58:35.313Z,7.1
2019-05-25T13:00:35.900Z,2.4
2019-05-25T13:02:35.334Z,3.7
2019-05-25T13:04:35.925Z,4.5
2019-05-25T13:06:35.434Z,2.4
2019-05-25T13:08:34.923Z,2.1
2019-05-25T13:10:35.539Z,2.4
2019-05-25T13:12:35.008Z,2.6
2019-05-25T13:14:35.505Z,2.4
2019-05-25T13:16:35.153Z,3.4
2019-05-25T13:18:35.754Z,3.2
2019-05-25T13:20:35.331Z,4.3
2019-05-25T13:22:35.749Z,2.7
2019-05-25T13:24:35.475Z,3.4
2019-05-25T13:26:35.214Z,3.3
2019-05-25T13:28:35.681Z,4.4
2019-05-25T13:30:35.379Z,4.8
2019-05-25T13:32:35.813Z,6.5
2019-05-25T13:34:35.295Z,5.6
2019-05-25T13:36:35.866Z,4.8
2019-05-25T13:38:35.324Z,6.1
2019-05-25T13:40:35.150Z,6.7
2019-05-25T13:42:35.658Z,5.7
2019-05-25T13:44:35.119Z,7.2
2019-05-25T13:46:35.687Z,5.7
2019-05-25T13:48:35.261Z,7.2
2019-05-25T13:50:35.688Z,6.8
2019-05-25T13:52:35.150Z,6.5
2019-05-25T13:54:35.550Z,6.1
2019-05-25T13:56:35.369Z,5.4
2019-05-25T13:58:39.413Z,5.2
2019-05-25T14:02:35.887Z,2.4
2019-05-25T14:04:35.381Z,2.5
2019-05-25T14:06:35.115Z,3.4
2019-05-25T14:08:35.582Z,3.3
2019-05-25T14:10:35.109Z,2.6
2019-05-25T14:12:35.575Z,4.2
2019-05-25T14:14:35.159Z,3.8
2019-05-25T14:16:35.745Z,3.0
2019-05-25T14:18:35.342Z,2.5
2019-05-25T14:20:35.949Z,2.8
2019-05-25T14:22:35.341Z,2.4
2019-05-25T14:24:35.909Z,3.2
2019-05-25T14:26:35.487Z,2.9
2019-05-25T14:28:35.029Z,3.8
2019-05-25T14:30:35.514Z,3.3
2019-05-25T14:32:34.966Z,3.6
2019-05-25T14:34:35.418Z,3.6
2019-05-25T14:36:35.863Z,4.8
2019-05-25T14:38:35.482Z,3.9
2019-05-25T14:40:35.181Z,3.1
2019-05-25T14:42:35.602Z,2.9
2019-05-25T14:44:35.247Z,1.9
2019-05-25T14:46:35.624Z,2.9
2019-05-25T14:48:35.147Z,2.9
2019-05-25T14:50:35.644Z,3.0
2019-05-25T14:52:35.092Z,2.7
2019-05-25T14:54:35.619Z,2.6
2019-05-25T14:56:35.136Z,2.6
2019-05-25T14:58:35.729Z,2.8
2019-05-25T15:00:35.530Z,3.3
2019-05-25T15:02:35.058Z,3.9
2019-05-25T15:04:35.547Z,4.3
2019-05-25T15:06:35.079Z,4.5
2019-05-25T15:08:35.494Z,2.7
2019-05-25T15:10:35.216Z,4.0
2019-05-25T15:12:35.583Z,3.6
2019-05-25T15:14:35.069Z,4.0
2019-05-25T15:16:35.699Z,3.2
2019-05-25T15:18:35.385Z,3.8
2019-05-25T15:20:36.002Z,4.5
2019-05-25T15:22:35.579Z,3.3
2019-05-25T15:24:35.063Z,3.7
2019-05-25T15:26:35.514Z,3.4
2019-05-25T15:28:35.530Z,2.6
2019-05-25T15:30:33.593Z,2.2
2019-05-25T15:32:34.925Z,2.5
2019-05-25T15:34:35.492Z,2.8
2019-05-25T15:36:34.937Z,2.5
2019-05-25T15:38:35.490Z,2.4
2019-05-25T15:40:35.013Z,3.4
2019-05-25T15:42:35.277Z,3.2
2019-05-25T15:44:35.811Z,3.2
2019-05-25T15:46:35.250Z,2.2
2019-05-25T15:48:35.763Z,2.6
2019-05-25T15:50:35.288Z,3.6
2019-05-25T15:52:35.677Z,3.4
2019-05-25T15:54:35.378Z,4.1
2019-05-25T15:56:35.931Z,4.2
2019-05-25T15:58:35.527Z,3.1
2019-05-25T16:02:37.449Z,4.7
2019-05-25T16:04:35.951Z,4.2
2019-05-25T16:06:35.522Z,4.5
2019-05-25T16:08:35.031Z,5.3
2019-05-25T16:10:35.490Z,4.7
2019-05-25T16:12:35.026Z,3.5
2019-05-25T16:14:35.526Z,5.2
2019-05-25T16:16:35.090Z,3.8
2019-05-25T16:18:35.595Z,5.0
2019-05-25T16:20:35.016Z,4.5
2019-05-25T16:22:35.400Z,4.5
2019-05-25T16:24:35.001Z,4.6
2019-05-25T16:26:46.751Z,5.7
2019-05-25T16:28:35.832Z,5.4
2019-05-25T16:30:35.810Z,5.3
2019-05-25T16:32:33.809Z,5.6
2019-05-25T16:34:33.720Z,5.7
2019-05-25T16:36:35.136Z,5.0
2019-05-25T16:38:35.605Z,5.3
2019-05-25T16:40:35.123Z,7.1
2019-05-25T16:42:35.605Z,5.5
2019-05-25T16:44:35.169Z,5.8
2019-05-25T16:46:35.749Z,7.3
2019-05-25T16:48:35.307Z,5.1
2019-05-25T16:50:35.761Z,5.8
2019-05-25T16:52:35.208Z,3.9
2019-05-25T16:54:35.785Z,4.6
2019-05-25T16:56:35.318Z,4.8
2019-05-25T16:58:35.873Z,5.5
2019-05-25T17:00:35.397Z,4.9
2019-05-25T17:02:35.154Z,5.0
2019-05-25T17:04:35.793Z,4.8
2019-05-25T17:06:35.742Z,3.8
2019-05-25T17:08:33.980Z,6.9
2019-05-25T17:10:35.560Z,4.9
2019-05-25T17:12:34.969Z,4.4
2019-05-25T17:14:35.593Z,3.0
2019-05-25T17:16:35.681Z,2.6
2019-05-25T17:18:35.305Z,3.4
2019-05-25T17:20:35.822Z,2.5
2019-05-25T17:22:35.209Z,3.0
2019-05-25T17:24:35.706Z,2.9
2019-05-25T17:26:35.191Z,4.3
2019-05-25T17:28:35.770Z,3.7
2019-05-25T17:30:35.277Z,3.6
2019-05-25T17:32:36.198Z,3.5
2019-05-25T17:34:35.651Z,3.2
2019-05-25T17:36:35.103Z,3.4
2019-05-25T17:38:35.883Z,2.0
2019-05-25T17:40:35.326Z,4.0
2019-05-25T17:42:35.769Z,2.4
2019-05-25T17:44:35.285Z,2.2
2019-05-25T17:46:35.919Z,2.3
2019-05-25T17:48:36.019Z,2.5
2019-05-25T17:50:34.012Z,2.4
2019-05-25T17:52:35.424Z,2.8
2019-05-25T17:54:34.994Z,2.4
2019-05-25T17:56:35.411Z,2.8
2019-05-25T17:58:34.888Z,4.2
2019-05-25T18:00:35.386Z,4.5
2019-05-25T18:02:35.859Z,4.8
2019-05-25T18:04:35.496Z,3.5
2019-05-25T18:06:35.081Z,4.5
2019-05-25T18:08:35.596Z,6.0
2019-05-25T18:10:53.778Z,5.7
2019-05-25T18:12:35.431Z,5.4
2019-05-25T18:14:34.879Z,6.2
2019-05-25T18:16:35.304Z,8.2
2019-05-25T18:18:34.869Z,8.0
2019-05-25T18:20:35.483Z,7.0
2019-05-25T18:22:34.900Z,12.0
2019-05-25T18:24:35.398Z,5.7
2019-05-25T18:26:35.899Z,10.7
2019-05-25T18:28:35.371Z,10.2
2019-05-25T18:30:35.863Z,18.5
2019-05-25T18:32:35.318Z,10.7
2019-05-25T18:34:35.831Z,17.9
2019-05-25T18:36:35.262Z,21.9
2019-05-25T18:38:35.786Z,18.2
2019-05-25T18:40:35.319Z,22.5
2019-05-25T18:42:35.786Z,19.4
2019-05-25T18:44:35.300Z,21.5
2019-05-25T18:46:35.932Z,19.4
2019-05-25T18:48:35.412Z,23.7
2019-05-25T18:50:35.406Z,18.6
2019-05-25T18:52:35.649Z,23.5
2019-05-25T18:54:35.100Z,31.1
2019-05-25T18:56:35.391Z,32.3
2019-05-25T18:58:35.834Z,35.8
2019-05-25T19:00:35.288Z,34.4
2019-05-25T19:02:35.779Z,34.2
2019-05-25T19:04:58.168Z,35.0
2019-05-25T19:06:42.611Z,35.2
2019-05-25T19:08:43.969Z,30.2
2019-05-25T19:10:44.572Z,30.4
2019-05-25T19:12:44.053Z,32.2
2019-05-25T19:14:44.410Z,36.8
2019-05-25T19:16:44.967Z,25.9
2019-05-25T19:18:44.545Z,34.7
2019-05-25T19:20:44.035Z,34.2
2019-05-25T19:22:44.495Z,36.3
2019-05-25T19:24:44.991Z,30.5
2019-05-25T19:26:44.462Z,33.5
2019-05-25T19:28:45.035Z,33.9
2019-05-25T19:30:44.510Z,29.4
2019-05-25T19:32:44.969Z,38.5
2019-05-25T19:35:00.231Z,36.3
2019-05-25T19:36:44.888Z,28.6
2019-05-25T19:38:44.374Z,36.5
2019-05-25T19:40:44.896Z,25.2
2019-05-25T19:42:44.413Z,19.3
2019-05-25T19:44:44.536Z,24.5
2019-05-25T19:46:44.276Z,20.1
2019-05-25T19:48:44.912Z,26.2
2019-05-25T19:50:44.452Z,27.5
2019-05-25T19:52:45.139Z,33.8
2019-05-25T19:54:44.678Z,25.0
2019-05-25T19:56:44.270Z,30.2
2019-05-25T19:58:44.840Z,39.7
2019-05-25T20:00:44.343Z,29.0
2019-05-25T20:02:44.863Z,23.2
2019-05-25T20:04:44.315Z,31.4
2019-05-25T20:06:44.888Z,28.4
2019-05-25T20:08:44.478Z,28.5
2019-05-25T20:10:45.033Z,28.1
2019-05-25T20:12:44.619Z,35.7
2019-05-25T20:14:43.986Z,27.3
2019-05-25T20:16:44.545Z,24.8
2019-05-25T20:18:44.200Z,26.4
2019-05-25T20:20:44.816Z,32.4
2019-05-25T20:22:44.368Z,26.0
2019-05-25T20:24:44.921Z,31.0
2019-05-25T20:26:44.434Z,27.9
2019-05-25T20:28:45.095Z,27.1
2019-05-25T20:30:44.573Z,30.4
2019-05-25T20:32:44.119Z,29.4
2019-05-25T20:34:46.106Z,36.9
2019-05-25T20:36:44.866Z,30.6
2019-05-25T20:38:44.361Z,44.7
2019-05-25T20:40:45.022Z,33.1
2019-05-25T20:42:44.561Z,47.1
2019-05-25T20:44:44.099Z,42.4
2019-05-25T20:46:44.620Z,45.6
2019-05-25T20:48:44.191Z,26.8
2019-05-25T20:50:44.788Z,39.0
2019-05-25T20:52:44.294Z,45.7
2019-05-25T20:54:44.769Z,42.1
2019-05-25T20:56:44.289Z,39.2
2019-05-25T20:58:44.825Z,36.4
2019-05-25T21:00:44.331Z,36.9
2019-05-25T21:02:44.848Z,35.5
2019-05-25T21:04:44.431Z,34.9
2019-05-25T21:06:44.860Z,19.8
2019-05-25T21:08:44.441Z,18.4
2019-05-25T21:10:45.076Z,11.2
2019-05-25T21:12:44.609Z,20.7
2019-05-25T21:14:44.086Z,24.2
2019-05-25T21:16:44.575Z,19.7
2019-05-25T21:18:44.203Z,20.9
2019-05-25T21:20:44.703Z,21.4
2019-05-25T21:22:44.097Z,22.6
2019-05-25T21:24:44.692Z,17.7
2019-05-25T21:26:44.259Z,17.0
2019-05-25T21:28:45.142Z,22.3
2019-05-25T21:30:44.588Z,22.0
2019-05-25T21:32:44.062Z,17.9
2019-05-25T21:34:44.470Z,17.7
2019-05-25T21:36:44.951Z,19.5
2019-05-25T21:38:44.985Z,17.8
2019-05-25T21:40:42.945Z,18.9
2019-05-25T21:42:44.337Z,12.7
2019-05-25T21:44:47.399Z,11.8
2019-05-25T21:54:34.050Z,13.2
2019-05-25T21:56:36.440Z,14.9
2019-05-25T21:58:35.980Z,14.1
2019-05-25T22:00:36.452Z,17.1
2019-05-25T22:02:35.830Z,16.2
2019-05-25T22:04:36.279Z,15.0
2019-05-25T22:06:41.234Z,15.1
2019-05-25T22:07:31.080Z,14.3
2019-05-25T22:09:30.604Z,16.5
2019-05-25T22:13:32.351Z,16.9
2019-05-25T22:17:57.705Z,22.4
2019-05-25T22:21:32.850Z,30.0
2019-05-25T22:23:30.800Z,19.6
2019-05-25T22:25:30.822Z,18.0
2019-05-25T22:27:30.770Z,19.1
2019-05-25T22:29:32.182Z,17.6
2019-05-25T22:31:32.645Z,23.0
2019-05-25T22:33:32.131Z,18.2
2019-05-25T22:35:32.626Z,19.3
2019-05-25T22:37:32.047Z,21.1
2019-05-25T22:39:32.490Z,23.8
2019-05-25T22:41:32.888Z,20.1
2019-05-25T22:43:32.360Z,23.2
2019-05-25T22:45:32.897Z,12.0
2019-05-25T22:47:32.396Z,11.9
2019-05-25T22:49:32.857Z,11.9
2019-05-25T22:51:32.263Z,12.1
2019-05-25T22:53:32.801Z,12.7
2019-05-25T22:55:32.333Z,12.8
2019-05-25T22:57:32.837Z,12.3
2019-05-25T22:59:32.363Z,14.4
2019-05-25T23:01:32.830Z,16.1
2019-05-25T23:03:32.446Z,17.8
2019-05-25T23:05:33.069Z,15.6
2019-05-25T23:07:32.596Z,27.5
2019-05-25T23:09:32.159Z,14.7
2019-05-25T23:11:32.543Z,18.3
2019-05-25T23:13:32.009Z,23.7
2019-05-25T23:15:32.480Z,21.4
2019-05-25T23:17:32.921Z,26.6
2019-05-25T23:19:32.454Z,18.2
2019-05-25T23:21:31.967Z,16.7
2019-05-25T23:23:32.373Z,21.7
2019-05-25T23:25:32.920Z,21.3
2019-05-25T23:27:32.523Z,15.2
2019-05-25T23:29:32.015Z,20.7
2019-05-25T23:31:32.412Z,18.2
2019-05-25T23:33:32.881Z,13.5
2019-05-25T23:35:32.283Z,17.1
2019-05-25T23:37:32.781Z,16.3
2019-05-25T23:39:32.197Z,10.8
2019-05-25T23:41:32.890Z,17.4
2019-05-25T23:43:32.328Z,11.8
2019-05-25T23:45:32.819Z,19.2
2019-05-25T23:47:32.342Z,13.4
2019-05-25T23:49:32.843Z,8.7
2019-05-25T23:51:32.380Z,13.8
2019-05-25T23:53:32.852Z,16.1
2019-05-25T23:55:32.214Z,13.8
2019-05-25T23:57:32.659Z,14.1
2019-05-25T23:59:32.139Z,10.7
